Time;durP1;ratioP1;P1;durP2;ratioP2;P2;SDS_P1;SDS_P2;PMS_P1;PMS_P2;Temp;Humidity;BMP_temperature;BMP_pressure;BME280_temperature;BME280_humidity;BME280_pressure;Samples;Min_cycle;Max_cycle;Signal;HPM_P1;HPM_P2
2023/07/14 00:01:16;;;;;;;4.00;1.60;;;;;;;;;;5077480;28;20123;-59
2023/07/14 00:03:44;;;;;;;3.95;1.55;;;;;;;;;;5083470;28;20345;-60
2023/07/14 00:06:13;;;;;;;4.35;1.60;;;;;;;;;;5084996;28;20144;-59
2023/07/14 00:08:40;;;;;;;5.28;1.63;;;;;;;;;;5094734;28;20015;-59
2023/07/14 00:11:15;;;;;;;6.70;2.05;;;;;;;;;;5084238;28;20031;-59
2023/07/14 00:13:43;;;;;;;6.05;1.48;;;;;;;;;;5091346;28;20020;-59
2023/07/14 00:16:12;;;;;;;5.97;1.48;;;;;;;;;;5089444;28;20027;-59
2023/07/14 00:18:37;;;;;;;4.50;1.70;;;;;;;;;;5082381;28;20051;-58
2023/07/14 00:21:03;;;;;;;5.77;1.67;;;;;;;;;;5084357;28;20020;-60
2023/07/14 00:23:28;;;;;;;9.05;1.55;;;;;;;;;;5083106;28;20298;-60
2023/07/14 00:25:53;;;;;;;4.88;1.40;;;;;;;;;;5085450;28;20020;-59
2023/07/14 00:28:20;;;;;;;4.40;1.50;;;;;;;;;;5088950;28;20027;-58
2023/07/14 00:30:48;;;;;;;5.03;1.80;;;;;;;;;;5085482;28;20261;-59
2023/07/14 00:33:19;;;;;;;8.88;1.67;;;;;;;;;;5085926;28;20382;-60
2023/07/14 00:35:48;;;;;;;3.65;1.58;;;;;;;;;;5089957;28;20085;-60
2023/07/14 00:38:14;;;;;;;5.63;1.70;;;;;;;;;;5085451;28;20015;-60
2023/07/14 00:40:44;;;;;;;4.65;1.30;;;;;;;;;;5087971;27;20035;-58
2023/07/14 00:43:17;;;;;;;4.50;1.70;;;;;;;;;;5093627;28;20024;-59
2023/07/14 00:45:43;;;;;;;5.70;1.70;;;;;;;;;;5081622;28;20984;-59
2023/07/14 00:48:13;;;;;;;4.90;1.63;;;;;;;;;;5090555;28;20023;-60
2023/07/14 00:50:49;;;;;;;4.40;1.50;;;;;;;;;;5088525;28;20023;-59
2023/07/14 00:53:21;;;;;;;3.50;1.40;;;;;;;;;;5084292;28;20453;-58
2023/07/14 00:55:56;;;;;;;4.95;1.63;;;;;;;;;;5088913;28;20020;-59
2023/07/14 00:58:25;;;;;;;6.65;1.63;;;;;;;;;;5092506;28;20386;-59
2023/07/14 01:01:00;;;;;;;4.70;1.48;;;;;;;;;;5092775;28;20466;-59
2023/07/14 01:03:25;;;;;;;6.95;1.48;;;;;;;;;;5090211;28;20034;-58
2023/07/14 01:05:52;;;;;;;3.90;1.43;;;;;;;;;;5097929;28;20008;-60
2023/07/14 01:08:18;;;;;;;5.05;1.60;;;;;;;;;;5086704;28;20697;-59
2023/07/14 01:10:43;;;;;;;4.30;1.58;;;;;;;;;;5096081;28;20020;-62
2023/07/14 01:13:08;;;;;;;4.72;1.63;;;;;;;;;;5087920;28;20771;-59
2023/07/14 01:15:35;;;;;;;3.88;1.60;;;;;;;;;;5087525;28;20040;-59
2023/07/14 01:18:03;;;;;;;4.72;1.50;;;;;;;;;;5096860;28;20052;-58
2023/07/14 01:20:28;;;;;;;6.35;1.80;;;;;;;;;;5093902;28;20015;-58
2023/07/14 01:22:53;;;;;;;3.90;1.70;;;;;;;;;;5088966;28;20024;-59
2023/07/14 01:25:25;;;;;;;4.50;1.60;;;;;;;;;;5087460;28;20020;-59
2023/07/14 01:27:50;;;;;;;3.75;1.40;;;;;;;;;;5089106;28;20522;-60
2023/07/14 01:30:19;;;;;;;4.10;1.70;;;;;;;;;;5084685;28;20543;-59
2023/07/14 01:32:45;;;;;;;4.17;1.50;;;;;;;;;;5096116;28;20281;-60
2023/07/14 01:35:11;;;;;;;5.60;1.98;;;;;;;;;;5092449;28;20258;-60
2023/07/14 01:37:39;;;;;;;4.60;1.45;;;;;;;;;;5090799;28;20015;-58
2023/07/14 01:40:05;;;;;;;3.90;1.42;;;;;;;;;;5089282;28;20382;-58
2023/07/14 01:42:31;;;;;;;5.18;1.85;;;;;;;;;;5086642;28;20024;-61
2023/07/14 01:44:59;;;;;;;5.03;1.55;;;;;;;;;;5091115;28;20031;-58
2023/07/14 01:47:24;;;;;;;4.43;1.23;;;;;;;;;;5084624;28;20080;-58
2023/07/14 01:49:50;;;;;;;4.18;1.48;;;;;;;;;;5088279;28;20019;-59
2023/07/14 01:52:22;;;;;;;3.72;1.38;;;;;;;;;;5089143;28;20135;-58
2023/07/14 01:54:49;;;;;;;7.45;1.50;;;;;;;;;;5084777;28;20011;-58
2023/07/14 01:57:17;;;;;;;6.93;1.55;;;;;;;;;;5077514;28;20502;-58
2023/07/14 01:59:47;;;;;;;4.68;1.50;;;;;;;;;;5088875;28;20474;-58
2023/07/14 02:02:16;;;;;;;5.25;1.60;;;;;;;;;;5089376;28;20641;-63
2023/07/14 02:04:42;;;;;;;6.45;1.48;;;;;;;;;;5085173;28;20030;-60
2023/07/14 02:07:11;;;;;;;4.85;1.50;;;;;;;;;;5092170;28;20027;-59
2023/07/14 02:09:40;;;;;;;4.07;1.40;;;;;;;;;;5089323;28;20031;-59
2023/07/14 02:12:06;;;;;;;4.57;1.23;;;;;;;;;;5088224;28;20047;-60
2023/07/14 02:14:37;;;;;;;5.38;1.60;;;;;;;;;;5091945;28;20016;-59
2023/07/14 02:17:05;;;;;;;5.15;1.65;;;;;;;;;;5083819;28;20078;-59
2023/07/14 02:19:31;;;;;;;4.13;1.50;;;;;;;;;;5093601;28;20018;-60
2023/07/14 02:21:57;;;;;;;3.65;1.38;;;;;;;;;;5082978;28;20024;-61
2023/07/14 02:24:23;;;;;;;4.00;1.50;;;;;;;;;;5095071;28;20019;-60
2023/07/14 02:26:58;;;;;;;5.50;1.70;;;;;;;;;;5086391;28;20434;-60
2023/07/14 02:29:26;;;;;;;3.88;1.55;;;;;;;;;;5092712;28;20462;-59
2023/07/14 02:31:51;;;;;;;7.75;1.70;;;;;;;;;;5081151;28;20064;-59
2023/07/14 02:34:17;;;;;;;3.40;1.40;;;;;;;;;;5086046;28;20008;-59
2023/07/14 02:37:01;;;;;;;3.85;1.48;;;;;;;;;;5087517;28;20242;-59
2023/07/14 02:39:29;;;;;;;4.90;1.40;;;;;;;;;;5078070;28;20545;-59
2023/07/14 02:41:59;;;;;;;4.40;1.42;;;;;;;;;;5093751;28;20026;-59
2023/07/14 02:44:36;;;;;;;5.88;1.58;;;;;;;;;;5090592;28;20076;-59
2023/07/14 02:47:07;;;;;;;4.25;1.63;;;;;;;;;;5090829;28;20058;-58
2023/07/14 02:49:35;;;;;;;4.30;1.40;;;;;;;;;;5088570;28;20580;-58
2023/07/14 02:52:00;;;;;;;3.53;1.35;;;;;;;;;;5071704;28;20151;-59
2023/07/14 02:54:26;;;;;;;3.97;1.30;;;;;;;;;;5089321;28;20028;-59
2023/07/14 02:56:52;;;;;;;3.05;1.17;;;;;;;;;;5081242;28;20015;-60
2023/07/14 02:59:17;;;;;;;3.90;1.30;;;;;;;;;;5093696;28;20069;-61
2023/07/14 03:01:42;;;;;;;4.22;1.40;;;;;;;;;;5084286;28;20026;-58
2023/07/14 03:04:09;;;;;;;6.07;1.70;;;;;;;;;;5092437;28;20237;-59
2023/07/14 03:06:34;;;;;;;6.70;1.70;;;;;;;;;;5087226;28;20169;-59
2023/07/14 03:08:59;;;;;;;5.43;1.50;;;;;;;;;;5087088;28;20550;-60
2023/07/14 03:11:25;;;;;;;4.50;1.53;;;;;;;;;;5082316;28;20024;-60
2023/07/14 03:13:51;;;;;;;4.17;1.63;;;;;;;;;;5086079;28;20249;-59
2023/07/14 03:16:16;;;;;;;5.15;1.67;;;;;;;;;;5088314;27;20261;-60
2023/07/14 03:18:42;;;;;;;4.35;1.60;;;;;;;;;;5089227;28;20052;-59
2023/07/14 03:21:07;;;;;;;4.17;1.57;;;;;;;;;;5081350;28;20795;-59
2023/07/14 03:23:35;;;;;;;3.37;1.20;;;;;;;;;;5085595;28;20252;-59
2023/07/14 03:26:01;;;;;;;4.35;1.50;;;;;;;;;;5086304;28;20983;-60
2023/07/14 03:28:27;;;;;;;3.25;1.27;;;;;;;;;;5088183;28;20127;-58
2023/07/14 03:30:55;;;;;;;5.20;1.55;;;;;;;;;;5081808;28;20066;-59
2023/07/14 03:33:20;;;;;;;5.85;1.60;;;;;;;;;;5087329;28;20061;-61
2023/07/14 03:35:45;;;;;;;4.93;1.40;;;;;;;;;;5083658;28;20031;-59
2023/07/14 03:38:10;;;;;;;4.22;1.40;;;;;;;;;;5083612;28;20427;-58
2023/07/14 03:40:36;;;;;;;3.67;1.30;;;;;;;;;;5086938;28;20046;-59
2023/07/14 03:43:03;;;;;;;5.00;1.60;;;;;;;;;;5079839;28;21009;-59
2023/07/14 03:45:31;;;;;;;7.00;1.35;;;;;;;;;;5092683;28;20027;-58
2023/07/14 03:47:56;;;;;;;4.25;1.40;;;;;;;;;;5086762;28;20023;-58
2023/07/14 03:50:21;;;;;;;5.25;1.40;;;;;;;;;;5093463;28;20100;-60
2023/07/14 03:52:46;;;;;;;5.40;1.30;;;;;;;;;;5086436;28;20020;-59
2023/07/14 03:55:12;;;;;;;4.60;1.50;;;;;;;;;;5093235;28;20340;-59
2023/07/14 03:57:37;;;;;;;4.97;1.40;;;;;;;;;;5081296;28;20047;-60
2023/07/14 04:00:12;;;;;;;4.05;1.40;;;;;;;;;;5093762;28;20030;-59
2023/07/14 04:02:42;;;;;;;4.43;1.52;;;;;;;;;;5081008;28;20045;-59
2023/07/14 04:05:08;;;;;;;5.53;1.40;;;;;;;;;;5086528;28;20038;-59
2023/07/14 04:07:34;;;;;;;5.63;1.60;;;;;;;;;;5088960;28;20035;-59
2023/07/14 04:09:59;;;;;;;3.78;1.48;;;;;;;;;;5092869;28;21190;-60
2023/07/14 04:12:24;;;;;;;5.55;1.48;;;;;;;;;;5089092;28;20617;-60
2023/07/14 04:14:50;;;;;;;4.67;1.43;;;;;;;;;;5091587;28;20055;-60
2023/07/14 04:17:15;;;;;;;4.03;1.20;;;;;;;;;;5091259;28;20812;-58
2023/07/14 04:19:40;;;;;;;5.67;1.60;;;;;;;;;;5087779;28;20024;-59
2023/07/14 04:22:05;;;;;;;3.17;1.20;;;;;;;;;;5090968;28;20019;-59
2023/07/14 04:24:31;;;;;;;4.73;1.50;;;;;;;;;;5085169;28;20284;-59
2023/07/14 04:26:58;;;;;;;4.47;1.40;;;;;;;;;;5086036;28;20284;-60
2023/07/14 04:29:29;;;;;;;3.95;1.20;;;;;;;;;;5090832;28;20815;-58
2023/07/14 04:31:55;;;;;;;6.55;1.35;;;;;;;;;;5091798;28;20157;-59
2023/07/14 04:34:22;;;;;;;4.70;1.37;;;;;;;;;;5095340;28;20016;-60
2023/07/14 04:36:48;;;;;;;4.60;1.30;;;;;;;;;;5082927;28;20011;-59
2023/07/14 04:39:15;;;;;;;3.25;1.13;;;;;;;;;;5091595;28;20016;-59
2023/07/14 04:41:41;;;;;;;3.55;1.48;;;;;;;;;;5084706;28;20024;-58
2023/07/14 04:44:13;;;;;;;4.50;1.10;;;;;;;;;;5090609;28;20065;-59
2023/07/14 04:46:38;;;;;;;4.07;1.30;;;;;;;;;;5090429;28;20016;-60
2023/07/14 04:49:06;;;;;;;4.38;1.42;;;;;;;;;;5091368;28;20399;-60
2023/07/14 04:51:32;;;;;;;4.50;1.30;;;;;;;;;;5093475;28;20020;-60
2023/07/14 04:53:57;;;;;;;4.35;1.30;;;;;;;;;;5090529;28;20480;-58
2023/07/14 04:56:25;;;;;;;4.53;1.27;;;;;;;;;;5097101;28;20037;-59
2023/07/14 04:58:51;;;;;;;4.43;1.45;;;;;;;;;;5080632;28;20020;-60
2023/07/14 05:01:19;;;;;;;3.60;1.30;;;;;;;;;;5086966;28;20031;-60
2023/07/14 05:03:45;;;;;;;4.30;1.30;;;;;;;;;;5089333;28;20873;-59
2023/07/14 05:06:14;;;;;;;3.65;1.35;;;;;;;;;;5089065;28;20027;-59
2023/07/14 05:08:39;;;;;;;4.50;1.60;;;;;;;;;;5090228;28;20089;-59
2023/07/14 05:11:04;;;;;;;4.70;1.20;;;;;;;;;;5089731;28;21545;-59
2023/07/14 05:13:30;;;;;;;4.70;1.38;;;;;;;;;;5088065;28;20016;-60
2023/07/14 05:15:55;;;;;;;6.53;1.23;;;;;;;;;;5083756;28;20020;-59
2023/07/14 05:18:21;;;;;;;5.53;1.30;;;;;;;;;;5094720;28;20056;-60
2023/07/14 05:20:46;;;;;;;4.63;1.57;;;;;;;;;;5083288;28;20023;-62
2023/07/14 05:23:11;;;;;;;4.47;1.30;;;;;;;;;;5097228;28;20098;-61
2023/07/14 05:25:37;;;;;;;4.03;1.30;;;;;;;;;;5089203;28;20763;-60
2023/07/14 05:28:02;;;;;;;3.65;1.08;;;;;;;;;;5085315;28;20293;-59
2023/07/14 05:30:27;;;;;;;3.25;1.10;;;;;;;;;;5092474;28;20345;-59
2023/07/14 05:32:53;;;;;;;6.33;1.50;;;;;;;;;;5091469;28;20099;-59
2023/07/14 05:35:18;;;;;;;3.83;1.30;;;;;;;;;;5095144;28;20759;-60
2023/07/14 05:37:44;;;;;;;4.10;1.40;;;;;;;;;;5087626;28;20394;-59
2023/07/14 05:40:11;;;;;;;4.10;1.33;;;;;;;;;;5092209;28;20020;-59
2023/07/14 05:42:39;;;;;;;3.97;1.20;;;;;;;;;;5083453;28;20024;-59
2023/07/14 05:45:05;;;;;;;5.20;1.25;;;;;;;;;;5093868;28;20375;-59
2023/07/14 05:47:30;;;;;;;3.60;1.40;;;;;;;;;;5089700;28;20031;-59
2023/07/14 05:49:56;;;;;;;6.13;1.40;;;;;;;;;;5091908;28;20015;-59
2023/07/14 05:52:21;;;;;;;4.17;1.33;;;;;;;;;;5088407;28;20073;-59
2023/07/14 05:54:47;;;;;;;4.15;1.30;;;;;;;;;;5079964;28;21158;-58
2023/07/14 05:57:12;;;;;;;4.53;1.20;;;;;;;;;;5092759;28;20020;-59
2023/07/14 05:59:40;;;;;;;3.95;1.33;;;;;;;;;;5082849;28;20093;-58
2023/07/14 06:02:09;;;;;;;4.25;1.23;;;;;;;;;;5092715;28;20020;-59
2023/07/14 06:04:36;;;;;;;8.25;1.80;;;;;;;;;;5084867;28;20028;-59
2023/07/14 06:07:03;;;;;;;3.80;1.10;;;;;;;;;;5089605;28;20032;-59
2023/07/14 06:09:32;;;;;;;4.32;1.33;;;;;;;;;;5081389;28;20730;-59
2023/07/14 06:11:58;;;;;;;3.63;1.25;;;;;;;;;;5095935;28;20088;-59
2023/07/14 06:14:23;;;;;;;4.03;1.30;;;;;;;;;;5087899;28;20028;-60
2023/07/14 06:16:53;;;;;;;3.50;1.30;;;;;;;;;;5084254;28;20026;-58
2023/07/14 06:19:20;;;;;;;5.43;1.50;;;;;;;;;;5090078;28;20260;-58
2023/07/14 06:21:47;;;;;;;4.28;1.58;;;;;;;;;;5085564;28;20102;-58
2023/07/14 06:24:14;;;;;;;4.68;1.30;;;;;;;;;;5089867;28;20023;-59
2023/07/14 06:26:39;;;;;;;3.35;1.20;;;;;;;;;;5085863;28;20027;-59
2023/07/14 06:29:04;;;;;;;4.25;1.52;;;;;;;;;;5088038;28;20024;-59
2023/07/14 06:31:29;;;;;;;4.13;1.27;;;;;;;;;;5085530;28;20782;-60
2023/07/14 06:33:57;;;;;;;5.60;1.23;;;;;;;;;;5092288;28;20027;-58
2023/07/14 06:36:22;;;;;;;5.60;1.60;;;;;;;;;;5087402;28;20728;-60
2023/07/14 06:38:48;;;;;;;4.85;1.42;;;;;;;;;;5089528;28;20028;-60
2023/07/14 06:41:13;;;;;;;5.67;1.43;;;;;;;;;;5088550;28;20024;-59
2023/07/14 06:43:38;;;;;;;3.93;1.40;;;;;;;;;;5086583;28;20825;-61
2023/07/14 06:46:06;;;;;;;6.90;1.60;;;;;;;;;;5093153;28;20257;-59
2023/07/14 06:48:31;;;;;;;3.92;1.33;;;;;;;;;;5085747;28;20313;-58
2023/07/14 06:50:57;;;;;;;4.20;1.40;;;;;;;;;;5097282;28;20587;-59
2023/07/14 06:53:25;;;;;;;5.43;1.30;;;;;;;;;;5082578;28;20028;-60
2023/07/14 06:55:50;;;;;;;4.60;1.50;;;;;;;;;;5086213;28;20462;-60
2023/07/14 06:58:18;;;;;;;4.10;1.25;;;;;;;;;;5087676;28;20073;-58
2023/07/14 07:00:45;;;;;;;3.75;1.20;;;;;;;;;;5089087;28;20047;-58
2023/07/14 07:03:10;;;;;;;4.70;1.52;;;;;;;;;;5092771;28;20042;-59
2023/07/14 07:05:39;;;;;;;4.18;1.40;;;;;;;;;;5082237;28;20461;-60
2023/07/14 07:08:07;;;;;;;4.75;1.60;;;;;;;;;;5090707;28;20825;-59
2023/07/14 07:10:35;;;;;;;5.80;1.70;;;;;;;;;;5085022;28;20016;-58
2023/07/14 07:13:00;;;;;;;5.22;1.70;;;;;;;;;;5085342;28;20391;-59
2023/07/14 07:15:25;;;;;;;3.83;1.53;;;;;;;;;;5089344;28;20020;-59
2023/07/14 07:17:51;;;;;;;4.20;1.43;;;;;;;;;;5088377;28;20359;-58
2023/07/14 07:20:18;;;;;;;4.33;1.40;;;;;;;;;;5092132;28;20329;-58
2023/07/14 07:22:47;;;;;;;3.58;1.50;;;;;;;;;;5090453;28;20028;-59
2023/07/14 07:25:12;;;;;;;3.80;1.70;;;;;;;;;;5089530;28;20012;-59
2023/07/14 07:27:40;;;;;;;4.37;1.60;;;;;;;;;;5088016;28;20028;-59
2023/07/14 07:30:05;;;;;;;4.97;2.20;;;;;;;;;;5087547;28;20326;-59
2023/07/14 07:32:31;;;;;;;4.95;1.48;;;;;;;;;;5091228;28;20087;-58
2023/07/14 07:34:59;;;;;;;5.00;2.00;;;;;;;;;;5088477;28;20022;-59
2023/07/14 07:37:24;;;;;;;4.80;2.10;;;;;;;;;;5094971;28;20016;-59
2023/07/14 07:39:53;;;;;;;5.43;2.05;;;;;;;;;;5085702;28;20047;-58
2023/07/14 07:42:21;;;;;;;6.95;1.73;;;;;;;;;;5089829;28;20011;-59
2023/07/14 07:44:46;;;;;;;5.05;2.05;;;;;;;;;;5087915;28;20057;-59
2023/07/14 07:47:12;;;;;;;5.70;2.20;;;;;;;;;;5087436;28;20076;-60
2023/07/14 07:49:38;;;;;;;4.05;1.85;;;;;;;;;;5088742;28;20332;-60
2023/07/14 07:52:03;;;;;;;4.95;2.30;;;;;;;;;;5087643;28;20092;-59
2023/07/14 07:54:29;;;;;;;6.47;2.85;;;;;;;;;;5089757;28;20378;-59
2023/07/14 07:56:54;;;;;;;7.10;2.27;;;;;;;;;;5085570;28;20455;-59
2023/07/14 07:59:19;;;;;;;7.53;2.20;;;;;;;;;;5086444;28;20256;-59
2023/07/14 08:01:49;;;;;;;4.23;1.70;;;;;;;;;;5085694;28;20102;-60
2023/07/14 08:04:16;;;;;;;5.38;1.85;;;;;;;;;;5088423;28;20257;-59
2023/07/14 08:06:42;;;;;;;4.65;1.55;;;;;;;;;;5082675;28;20069;-60
2023/07/14 08:09:12;;;;;;;6.38;1.60;;;;;;;;;;5091383;28;20035;-60
2023/07/14 08:11:40;;;;;;;4.80;1.70;;;;;;;;;;5087246;28;20047;-60
2023/07/14 08:14:16;;;;;;;5.25;1.48;;;;;;;;;;5086543;28;20031;-58
2023/07/14 08:16:43;;;;;;;8.77;1.55;;;;;;;;;;5088791;28;20040;-58
2023/07/14 08:19:09;;;;;;;5.10;1.50;;;;;;;;;;5080406;28;20020;-59
2023/07/14 08:21:36;;;;;;;4.75;1.65;;;;;;;;;;5096381;28;20019;-59
2023/07/14 08:24:01;;;;;;;3.78;1.40;;;;;;;;;;5088893;28;20016;-59
2023/07/14 08:26:27;;;;;;;5.15;1.40;;;;;;;;;;5084993;28;20489;-59
2023/07/14 08:28:52;;;;;;;4.60;1.40;;;;;;;;;;5081951;28;20024;-59
2023/07/14 08:31:18;;;;;;;7.10;1.60;;;;;;;;;;5088209;28;20024;-59
2023/07/14 08:33:43;;;;;;;4.43;1.60;;;;;;;;;;5089090;28;20598;-59
2023/07/14 08:36:09;;;;;;;4.10;1.35;;;;;;;;;;5084637;28;20257;-59
2023/07/14 08:38:35;;;;;;;3.92;1.50;;;;;;;;;;5086365;28;20076;-59
2023/07/14 08:41:03;;;;;;;6.45;1.40;;;;;;;;;;5084070;28;20099;-59
2023/07/14 08:43:28;;;;;;;5.55;1.70;;;;;;;;;;5084326;28;21256;-59
2023/07/14 08:46:03;;;;;;;4.87;1.53;;;;;;;;;;5084080;28;20016;-59
2023/07/14 08:48:40;;;;;;;4.80;1.55;;;;;;;;;;5081212;28;20024;-59
2023/07/14 08:51:17;;;;;;;3.95;1.63;;;;;;;;;;5089841;28;20085;-59
2023/07/14 08:53:45;;;;;;;4.28;1.58;;;;;;;;;;5081278;28;20014;-59
2023/07/14 08:56:10;;;;;;;3.88;1.50;;;;;;;;;;5087869;28;20082;-59
2023/07/14 08:58:38;;;;;;;3.75;1.50;;;;;;;;;;5089396;28;20052;-60
2023/07/14 09:01:25;;;;;;;4.60;1.60;;;;;;;;;;5085263;28;21663;-58
2023/07/14 09:03:55;;;;;;;4.40;1.52;;;;;;;;;;5091672;28;20280;-59
2023/07/14 09:06:23;;;;;;;4.10;1.70;;;;;;;;;;5083909;28;20495;-59
2023/07/14 09:08:50;;;;;;;5.45;1.48;;;;;;;;;;5094641;28;20038;-59
2023/07/14 09:11:18;;;;;;;6.10;2.25;;;;;;;;;;5086041;28;20473;-60
2023/07/14 09:13:48;;;;;;;4.28;1.77;;;;;;;;;;5095292;28;20024;-58
2023/07/14 09:16:18;;;;;;;5.45;1.58;;;;;;;;;;5082938;28;20020;-59
2023/07/14 09:18:43;;;;;;;;;;;;;;;;;;5092198;28;20056;-59
2023/07/14 09:21:15;;;;;;;4.57;1.55;;;;;;;;;;5089870;28;19915;-59
2023/07/14 09:23:56;;;;;;;8.18;1.83;;;;;;;;;;5087696;28;20016;-59
2023/07/14 09:26:27;;;;;;;4.40;1.52;;;;;;;;;;5081566;28;20020;-59
2023/07/14 09:28:54;;;;;;;4.47;1.58;;;;;;;;;;5094628;28;20132;-59
2023/07/14 09:31:23;;;;;;;3.95;1.33;;;;;;;;;;5085570;28;20024;-59
2023/07/14 09:33:50;;;;;;;5.18;1.50;;;;;;;;;;5095079;28;20107;-59
2023/07/14 09:36:17;;;;;;;4.20;1.60;;;;;;;;;;5081702;28;20043;-58
2023/07/14 09:38:47;;;;;;;4.70;1.65;;;;;;;;;;5088180;28;20131;-59
2023/07/14 09:41:16;;;;;;;;;;;;;;;;;;5084846;28;20024;-59
2023/07/14 09:43:44;;;;;;;;;;;;;;;;;;5091501;28;20460;-58
2023/07/14 09:46:10;;;;;;;3.47;1.10;;;;;;;;;;5098433;28;19907;-58
2023/07/14 09:48:40;;;;;;;5.60;1.60;;;;;;;;;;5089602;28;20035;-59
2023/07/14 09:51:24;;;;;;;5.45;1.48;;;;;;;;;;5085462;28;20058;-59
2023/07/14 09:54:00;;;;;;;4.68;1.85;;;;;;;;;;5107881;27;20435;-59
2023/07/14 09:56:36;;;;;;;4.35;1.50;;;;;;;;;;5084187;28;20030;-58
2023/07/14 09:59:04;;;;;;;4.10;1.60;;;;;;;;;;5085565;28;20781;-59
2023/07/14 10:01:30;;;;;;;4.65;1.55;;;;;;;;;;5084551;28;20023;-60
2023/07/14 10:03:58;;;;;;;4.38;1.60;;;;;;;;;;5083791;28;20026;-60
2023/07/14 10:06:26;;;;;;;3.85;1.40;;;;;;;;;;5086708;28;20035;-59
2023/07/14 10:08:54;;;;;;;4.60;1.88;;;;;;;;;;5087439;28;20770;-60
2023/07/14 10:11:23;;;;;;;6.78;2.08;;;;;;;;;;5090094;28;20020;-60
2023/07/14 10:13:54;;;;;;;4.65;1.80;;;;;;;;;;5088139;27;20725;-58
2023/07/14 10:16:22;;;;;;;5.97;1.85;;;;;;;;;;5094489;28;20024;-59
2023/07/14 10:18:53;;;;;;;4.45;1.55;;;;;;;;;;5091174;28;20102;-59
2023/07/14 10:21:26;;;;;;;5.53;1.42;;;;;;;;;;5088985;28;20016;-59
2023/07/14 10:23:57;;;;;;;4.28;1.55;;;;;;;;;;5089862;28;20019;-58
2023/07/14 10:26:26;;;;;;;4.00;1.60;;;;;;;;;;5086555;28;20081;-60
2023/07/14 10:28:56;;;;;;;4.70;1.40;;;;;;;;;;5088162;28;20077;-61
2023/07/14 10:31:45;;;;;;;5.05;1.70;;;;;;;;;;5085107;28;20584;-58
2023/07/14 10:34:13;;;;;;;;;;;;;;;;;;5082314;28;20111;-62
2023/07/14 10:36:41;;;;;;;4.75;1.77;;;;;;;;;;5084897;28;19907;-60
2023/07/14 10:39:30;;;;;;;4.47;1.70;;;;;;;;;;5096104;28;20256;-59
2023/07/14 10:41:56;;;;;;;4.40;1.70;;;;;;;;;;5078769;28;20051;-58
2023/07/14 10:44:33;;;;;;;4.30;1.60;;;;;;;;;;5089763;28;20020;-59
2023/07/14 10:47:02;;;;;;;4.25;1.67;;;;;;;;;;5087522;28;20023;-60
2023/07/14 10:49:40;;;;;;;4.72;1.60;;;;;;;;;;5087731;28;20028;-60
2023/07/14 10:52:11;;;;;;;4.65;1.60;;;;;;;;;;5088740;28;20023;-60
2023/07/14 10:55:14;;;;;;;5.43;1.77;;;;;;;;;;5083239;28;20072;-60
2023/07/14 10:57:49;;;;;;;4.95;1.60;;;;;;;;;;5027487;28;20032;-58
2023/07/14 11:00:33;;;;;;;4.57;1.70;;;;;;;;;;5026389;28;20058;-58
2023/07/14 11:03:08;;;;;;;6.32;1.85;;;;;;;;;;5026726;28;20033;-59
2023/07/14 11:05:33;;;;;;;4.50;1.60;;;;;;;;;;5012969;28;20087;-60
2023/07/14 11:07:59;;;;;;;5.60;1.75;;;;;;;;;;5013030;28;20075;-60
2023/07/14 11:10:24;;;;;;;5.25;1.60;;;;;;;;;;5030026;28;20032;-60
2023/07/14 11:12:54;;;;;;;6.17;1.90;;;;;;;;;;5022212;28;20025;-59
2023/07/14 11:15:25;;;;;;;6.97;1.70;;;;;;;;;;5011141;28;20040;-58
2023/07/14 11:17:59;;;;;;;4.00;1.70;;;;;;;;;;5030666;28;20068;-60
2023/07/14 11:20:35;;;;;;;4.95;1.65;;;;;;;;;;5026914;28;20136;-60
2023/07/14 11:23:09;;;;;;;6.18;2.10;;;;;;;;;;5014317;28;20025;-61
2023/07/14 11:25:57;;;;;;;5.32;1.90;;;;;;;;;;5008053;28;20126;-59
2023/07/14 11:28:41;;;;;;;4.65;1.73;;;;;;;;;;5039758;28;20050;-59
2023/07/14 11:31:27;;;;;;;4.90;2.00;;;;;;;;;;5090189;28;20028;-60
2023/07/14 11:34:08;;;;;;;3.97;1.85;;;;;;;;;;5105994;27;20023;-59
2023/07/14 11:36:39;;;;;;;10.10;2.40;;;;;;;;;;5086817;28;20016;-59
2023/07/14 11:39:23;;;;;;;5.55;1.73;;;;;;;;;;5081589;28;20026;-59
2023/07/14 11:41:51;;;;;;;4.75;2.03;;;;;;;;;;5084374;28;20695;-59
2023/07/14 11:44:18;;;;;;;5.80;2.10;;;;;;;;;;5086796;28;20450;-59
2023/07/14 11:46:44;;;;;;;5.53;2.03;;;;;;;;;;5081297;28;20049;-59
2023/07/14 11:49:23;;;;;;;5.28;2.10;;;;;;;;;;5080372;28;20035;-60
2023/07/14 11:51:53;;;;;;;5.70;2.50;;;;;;;;;;5084914;28;20058;-60
2023/07/14 11:54:18;;;;;;;5.53;2.17;;;;;;;;;;5087529;28;20046;-60
2023/07/14 11:56:59;;;;;;;6.17;2.00;;;;;;;;;;5081432;28;20075;-59
2023/07/14 11:59:25;;;;;;;6.90;2.10;;;;;;;;;;5096864;28;20249;-59
2023/07/14 12:01:55;;;;;;;4.60;1.95;;;;;;;;;;5084979;28;20023;-59
2023/07/14 12:04:24;;;;;;;6.13;2.35;;;;;;;;;;5094190;28;20037;-59
2023/07/14 12:06:49;;;;;;;;;;;;;;;;;;5085666;28;20123;-60
2023/07/14 12:09:16;;;;;;;5.27;2.33;;;;;;;;;;5090854;28;20597;-59
2023/07/14 12:11:41;;;;;;;6.93;2.25;;;;;;;;;;5084064;28;20008;-59
2023/07/14 12:14:26;;;;;;;6.35;2.10;;;;;;;;;;5083379;28;20028;-58
2023/07/14 12:16:51;;;;;;;5.68;2.40;;;;;;;;;;5086792;28;20016;-59
2023/07/14 12:19:20;;;;;;;5.30;2.40;;;;;;;;;;5086231;28;20618;-59
2023/07/14 12:21:54;;;;;;;7.18;2.38;;;;;;;;;;5091019;28;20098;-59
2023/07/14 12:24:22;;;;;;;5.80;2.38;;;;;;;;;;5087451;28;20019;-58
2023/07/14 12:26:47;;;;;;;5.05;2.30;;;;;;;;;;5086728;28;20493;-59
2023/07/14 12:29:18;;;;;;;6.97;2.70;;;;;;;;;;5091137;28;20478;-59
2023/07/14 12:31:56;;;;;;;5.10;2.40;;;;;;;;;;5090382;28;20011;-59
2023/07/14 12:34:27;;;;;;;5.03;2.70;;;;;;;;;;5085263;28;20032;-59
2023/07/14 12:36:53;;;;;;;7.55;2.88;;;;;;;;;;5086944;28;20397;-60
2023/07/14 12:39:18;;;;;;;6.38;2.80;;;;;;;;;;5092366;28;20020;-59
2023/07/14 12:41:47;;;;;;;7.32;2.70;;;;;;;;;;5078835;28;20965;-59
2023/07/14 12:44:31;;;;;;;7.90;3.10;;;;;;;;;;5081422;28;20023;-59
2023/07/14 12:46:57;;;;;;;5.70;2.92;;;;;;;;;;5081428;28;20028;-60
2023/07/14 12:49:36;;;;;;;4.57;2.47;;;;;;;;;;5073618;28;20024;-60
2023/07/14 12:52:28;;;;;;;5.60;2.50;;;;;;;;;;5080121;28;20208;-60
2023/07/14 12:54:56;;;;;;;5.88;2.50;;;;;;;;;;5079236;28;20780;-59
2023/07/14 12:57:26;;;;;;;7.07;2.67;;;;;;;;;;5080445;28;20105;-59
2023/07/14 12:59:52;;;;;;;6.10;2.50;;;;;;;;;;5082440;28;20320;-60
2023/07/14 13:02:17;;;;;;;6.50;2.90;;;;;;;;;;5084196;28;20599;-60
2023/07/14 13:04:45;;;;;;;5.43;2.90;;;;;;;;;;5084563;28;20814;-60
2023/07/14 13:07:16;;;;;;;6.32;2.80;;;;;;;;;;5075530;28;20099;-59
2023/07/14 13:09:44;;;;;;;6.80;2.70;;;;;;;;;;5080529;28;20051;-59
2023/07/14 13:12:11;;;;;;;5.75;2.75;;;;;;;;;;5075726;28;20174;-58
2023/07/14 13:14:44;;;;;;;6.88;2.80;;;;;;;;;;5080974;28;20015;-58
2023/07/14 13:17:17;;;;;;;6.60;2.88;;;;;;;;;;5084314;28;20527;-58
2023/07/14 13:19:45;;;;;;;6.63;3.00;;;;;;;;;;5077614;28;20061;-60
2023/07/14 13:22:19;;;;;;;6.83;3.00;;;;;;;;;;5083656;28;20378;-60
2023/07/14 13:24:50;;;;;;;7.93;2.85;;;;;;;;;;5077588;28;20284;-59
2023/07/14 13:27:21;;;;;;;5.75;3.10;;;;;;;;;;5088368;28;20050;-59
2023/07/14 13:29:55;;;;;;;6.60;3.33;;;;;;;;;;5081027;28;20016;-59
2023/07/14 13:32:27;;;;;;;8.57;3.15;;;;;;;;;;5079140;28;20016;-59
2023/07/14 13:35:00;;;;;;;7.25;3.00;;;;;;;;;;5080778;27;20308;-60
2023/07/14 13:37:28;;;;;;;6.70;3.15;;;;;;;;;;5081659;28;20073;-59
2023/07/14 13:39:59;;;;;;;6.15;3.30;;;;;;;;;;5082728;28;20016;-57
2023/07/14 13:42:29;;;;;;;7.70;3.38;;;;;;;;;;5080857;28;20828;-59
2023/07/14 13:44:57;;;;;;;6.65;3.13;;;;;;;;;;5080580;28;20024;-59
2023/07/14 13:47:24;;;;;;;9.73;3.42;;;;;;;;;;5080164;28;20024;-59
2023/07/14 13:49:50;;;;;;;7.75;3.08;;;;;;;;;;5076805;28;20093;-59
2023/07/14 13:52:30;;;;;;;6.80;3.20;;;;;;;;;;5083344;28;21181;-59
2023/07/14 13:54:58;;;;;;;6.05;3.00;;;;;;;;;;5087078;28;20086;-59
2023/07/14 13:57:24;;;;;;;6.10;3.28;;;;;;;;;;5082320;28;20022;-59
2023/07/14 13:59:52;;;;;;;8.35;3.20;;;;;;;;;;5082361;28;20017;-58
2023/07/14 14:02:20;;;;;;;6.30;3.08;;;;;;;;;;5089455;28;20020;-59
2023/07/14 14:04:45;;;;;;;6.15;3.05;;;;;;;;;;5093064;28;20055;-60
2023/07/14 14:07:13;;;;;;;7.23;3.33;;;;;;;;;;5083782;28;20109;-60
2023/07/14 14:09:38;;;;;;;7.88;3.58;;;;;;;;;;5088125;28;20254;-60
2023/07/14 14:12:06;;;;;;;7.63;3.70;;;;;;;;;;5084794;28;20376;-60
2023/07/14 14:14:34;;;;;;;6.28;3.30;;;;;;;;;;5090176;28;20262;-60
2023/07/14 14:17:02;;;;;;;6.20;3.28;;;;;;;;;;5085512;28;20016;-58
2023/07/14 14:19:28;;;;;;;6.80;3.10;;;;;;;;;;5089828;28;20812;-59
2023/07/14 14:21:58;;;;;;;7.47;3.63;;;;;;;;;;5085536;28;20092;-59
2023/07/14 14:24:23;;;;;;;6.55;2.97;;;;;;;;;;5092628;28;20077;-58
2023/07/14 14:26:49;;;;;;;8.15;3.65;;;;;;;;;;5088394;28;20015;-59
2023/07/14 14:29:15;;;;;;;6.35;3.10;;;;;;;;;;5091689;28;20087;-60
2023/07/14 14:31:42;;;;;;;7.35;3.50;;;;;;;;;;5088869;28;20108;-60
2023/07/14 14:34:15;;;;;;;5.78;3.08;;;;;;;;;;5087325;28;20032;-60
2023/07/14 14:36:40;;;;;;;9.50;3.35;;;;;;;;;;5085386;28;20139;-60
2023/07/14 14:39:19;;;;;;;8.43;3.50;;;;;;;;;;5089120;28;20022;-60
2023/07/14 14:41:47;;;;;;;7.15;3.33;;;;;;;;;;5081424;28;20042;-59
2023/07/14 14:44:20;;;;;;;8.27;3.40;;;;;;;;;;5089574;28;20015;-60
2023/07/14 14:46:48;;;;;;;7.10;3.38;;;;;;;;;;5087851;28;20431;-59
2023/07/14 14:49:15;;;;;;;7.45;3.30;;;;;;;;;;5088366;28;20046;-59
2023/07/14 14:51:40;;;;;;;7.60;3.40;;;;;;;;;;5092309;28;20120;-59
2023/07/14 14:54:05;;;;;;;7.70;3.55;;;;;;;;;;5087925;28;20557;-60